sensor_id;sensor_type;location;lat;lon;timestamp;P1;durP1;ratioP1;P2;durP2;ratioP2
85703;SDS011;76141;49.082;19.306;2024-02-15T00:00:11;25.25;;;14.50;;
85703;SDS011;76141;49.082;19.306;2024-02-15T00:02:37;24.55;;;15.35;;
85703;SDS011;76141;49.082;19.306;2024-02-15T00:05:03;27.25;;;14.98;;
85703;SDS011;76141;49.082;19.306;2024-02-15T00:07:28;24.08;;;15.38;;
85703;SDS011;76141;49.082;19.306;2024-02-15T00:09:54;24.80;;;14.98;;
85703;SDS011;76141;49.082;19.306;2024-02-15T00:12:19;25.77;;;16.15;;
85703;SDS011;76141;49.082;19.306;2024-02-15T00:14:45;24.23;;;15.65;;
85703;SDS011;76141;49.082;19.306;2024-02-15T00:17:11;28.65;;;16.27;;
85703;SDS011;76141;49.082;19.306;2024-02-15T00:19:37;27.50;;;16.83;;
85703;SDS011;76141;49.082;19.306;2024-02-15T00:22:05;34.25;;;17.88;;
85703;SDS011;76141;49.082;19.306;2024-02-15T00:24:30;33.83;;;19.17;;
85703;SDS011;76141;49.082;19.306;2024-02-15T00:26:56;29.40;;;18.55;;
85703;SDS011;76141;49.082;19.306;2024-02-15T00:29:22;32.78;;;18.10;;
85703;SDS011;76141;49.082;19.306;2024-02-15T00:31:47;36.63;;;19.98;;
85703;SDS011;76141;49.082;19.306;2024-02-15T00:34:15;33.47;;;18.60;;
85703;SDS011;76141;49.082;19.306;2024-02-15T00:36:44;30.42;;;18.70;;
85703;SDS011;76141;49.082;19.306;2024-02-15T00:39:10;32.08;;;17.70;;
85703;SDS011;76141;49.082;19.306;2024-02-15T00:41:37;32.80;;;18.27;;
85703;SDS011;76141;49.082;19.306;2024-02-15T00:44:06;35.70;;;18.67;;
85703;SDS011;76141;49.082;19.306;2024-02-15T00:46:31;34.40;;;19.00;;
85703;SDS011;76141;49.082;19.306;2024-02-15T00:48:57;32.03;;;19.50;;
85703;SDS011;76141;49.082;19.306;2024-02-15T00:51:23;33.30;;;17.88;;
85703;SDS011;76141;49.082;19.306;2024-02-15T00:53:48;31.45;;;17.95;;
85703;SDS011;76141;49.082;19.306;2024-02-15T00:56:14;30.92;;;18.58;;
85703;SDS011;76141;49.082;19.306;2024-02-15T00:58:39;31.55;;;17.98;;
85703;SDS011;76141;49.082;19.306;2024-02-15T01:01:05;30.75;;;18.42;;
85703;SDS011;76141;49.082;19.306;2024-02-15T01:03:30;31.38;;;17.85;;
85703;SDS011;76141;49.082;19.306;2024-02-15T01:05:56;31.30;;;17.50;;
85703;SDS011;76141;49.082;19.306;2024-02-15T01:08:22;28.75;;;18.42;;
85703;SDS011;76141;49.082;19.306;2024-02-15T01:10:48;33.53;;;17.73;;
85703;SDS011;76141;49.082;19.306;2024-02-15T01:13:13;31.35;;;18.25;;
85703;SDS011;76141;49.082;19.306;2024-02-15T01:15:39;29.15;;;18.27;;
85703;SDS011;76141;49.082;19.306;2024-02-15T01:18:06;29.17;;;17.45;;
85703;SDS011;76141;49.082;19.306;2024-02-15T01:20:31;32.33;;;18.25;;
85703;SDS011;76141;49.082;19.306;2024-02-15T01:22:57;27.80;;;16.00;;
85703;SDS011;76141;49.082;19.306;2024-02-15T01:25:22;25.05;;;14.80;;
85703;SDS011;76141;49.082;19.306;2024-02-15T01:27:48;25.45;;;15.55;;
85703;SDS011;76141;49.082;19.306;2024-02-15T01:30:13;25.60;;;15.48;;
85703;SDS011;76141;49.082;19.306;2024-02-15T01:32:39;26.55;;;15.93;;
85703;SDS011;76141;49.082;19.306;2024-02-15T01:35:07;24.70;;;16.17;;
85703;SDS011;76141;49.082;19.306;2024-02-15T01:37:35;24.75;;;15.65;;
85703;SDS011;76141;49.082;19.306;2024-02-15T01:40:01;20.95;;;14.38;;
85703;SDS011;76141;49.082;19.306;2024-02-15T01:42:27;23.70;;;15.25;;
85703;SDS011;76141;49.082;19.306;2024-02-15T01:44:52;25.67;;;14.90;;
85703;SDS011;76141;49.082;19.306;2024-02-15T01:47:18;24.42;;;14.45;;
85703;SDS011;76141;49.082;19.306;2024-02-15T01:49:47;22.48;;;14.15;;
85703;SDS011;76141;49.082;19.306;2024-02-15T01:52:13;22.98;;;13.52;;
85703;SDS011;76141;49.082;19.306;2024-02-15T01:54:41;23.08;;;14.02;;
85703;SDS011;76141;49.082;19.306;2024-02-15T01:57:07;21.73;;;14.30;;
85703;SDS011;76141;49.082;19.306;2024-02-15T01:59:32;22.98;;;14.43;;
85703;SDS011;76141;49.082;19.306;2024-02-15T02:01:58;23.25;;;16.10;;
85703;SDS011;76141;49.082;19.306;2024-02-15T02:04:23;24.08;;;15.85;;
85703;SDS011;76141;49.082;19.306;2024-02-15T02:06:49;27.02;;;16.98;;
85703;SDS011;76141;49.082;19.306;2024-02-15T02:09:15;26.80;;;15.68;;
85703;SDS011;76141;49.082;19.306;2024-02-15T02:11:44;24.23;;;16.65;;
85703;SDS011;76141;49.082;19.306;2024-02-15T02:14:10;26.13;;;17.70;;
85703;SDS011;76141;49.082;19.306;2024-02-15T02:16:36;27.63;;;17.98;;
85703;SDS011;76141;49.082;19.306;2024-02-15T02:19:03;28.67;;;17.85;;
85703;SDS011;76141;49.082;19.306;2024-02-15T02:24:00;33.47;;;19.38;;
85703;SDS011;76141;49.082;19.306;2024-02-15T02:26:32;27.52;;;17.67;;
85703;SDS011;76141;49.082;19.306;2024-02-15T02:28:58;32.08;;;19.13;;
85703;SDS011;76141;49.082;19.306;2024-02-15T02:31:24;28.45;;;17.58;;
85703;SDS011;76141;49.082;19.306;2024-02-15T02:33:51;28.45;;;17.35;;
85703;SDS011;76141;49.082;19.306;2024-02-15T02:36:20;28.42;;;17.98;;
85703;SDS011;76141;49.082;19.306;2024-02-15T02:38:46;26.38;;;17.48;;
85703;SDS011;76141;49.082;19.306;2024-02-15T02:41:15;27.38;;;16.55;;
85703;SDS011;76141;49.082;19.306;2024-02-15T02:43:41;26.65;;;15.80;;
85703;SDS011;76141;49.082;19.306;2024-02-15T02:46:06;26.48;;;15.40;;
85703;SDS011;76141;49.082;19.306;2024-02-15T02:48:35;23.27;;;16.08;;
85703;SDS011;76141;49.082;19.306;2024-02-15T02:51:01;25.42;;;15.82;;
85703;SDS011;76141;49.082;19.306;2024-02-15T02:53:27;24.63;;;16.13;;
85703;SDS011;76141;49.082;19.306;2024-02-15T02:55:53;25.02;;;15.77;;
85703;SDS011;76141;49.082;19.306;2024-02-15T02:58:21;22.52;;;15.75;;
85703;SDS011;76141;49.082;19.306;2024-02-15T03:00:47;24.38;;;13.43;;
85703;SDS011;76141;49.082;19.306;2024-02-15T03:03:13;24.42;;;14.73;;
85703;SDS011;76141;49.082;19.306;2024-02-15T03:05:38;23.35;;;14.93;;
85703;SDS011;76141;49.082;19.306;2024-02-15T03:08:05;27.00;;;16.23;;
85703;SDS011;76141;49.082;19.306;2024-02-15T03:10:31;27.30;;;16.17;;
85703;SDS011;76141;49.082;19.306;2024-02-15T03:12:56;25.55;;;15.73;;
85703;SDS011;76141;49.082;19.306;2024-02-15T03:15:22;22.35;;;15.88;;
85703;SDS011;76141;49.082;19.306;2024-02-15T03:17:48;25.80;;;15.68;;
85703;SDS011;76141;49.082;19.306;2024-02-15T03:20:13;26.48;;;16.52;;
85703;SDS011;76141;49.082;19.306;2024-02-15T03:22:55;25.42;;;16.17;;
85703;SDS011;76141;49.082;19.306;2024-02-15T03:25:22;22.40;;;15.00;;
85703;SDS011;76141;49.082;19.306;2024-02-15T03:27:49;31.08;;;16.08;;
85703;SDS011;76141;49.082;19.306;2024-02-15T03:30:17;23.80;;;15.63;;
85703;SDS011;76141;49.082;19.306;2024-02-15T03:32:44;24.15;;;15.75;;
85703;SDS011;76141;49.082;19.306;2024-02-15T03:35:09;20.85;;;14.80;;
85703;SDS011;76141;49.082;19.306;2024-02-15T03:37:37;26.00;;;15.15;;
85703;SDS011;76141;49.082;19.306;2024-02-15T03:40:04;23.13;;;14.80;;
85703;SDS011;76141;49.082;19.306;2024-02-15T03:42:30;21.58;;;14.40;;
85703;SDS011;76141;49.082;19.306;2024-02-15T03:44:56;26.08;;;15.60;;
85703;SDS011;76141;49.082;19.306;2024-02-15T03:47:21;25.20;;;14.60;;
85703;SDS011;76141;49.082;19.306;2024-02-15T03:49:47;22.08;;;14.45;;
85703;SDS011;76141;49.082;19.306;2024-02-15T03:52:12;23.30;;;15.20;;
85703;SDS011;76141;49.082;19.306;2024-02-15T03:54:38;24.98;;;14.75;;
85703;SDS011;76141;49.082;19.306;2024-02-15T03:57:03;25.75;;;15.90;;
85703;SDS011;76141;49.082;19.306;2024-02-15T03:59:31;30.42;;;15.70;;
85703;SDS011;76141;49.082;19.306;2024-02-15T04:01:57;29.70;;;15.45;;
85703;SDS011;76141;49.082;19.306;2024-02-15T04:04:23;26.33;;;15.63;;
85703;SDS011;76141;49.082;19.306;2024-02-15T04:06:49;25.92;;;16.38;;
85703;SDS011;76141;49.082;19.306;2024-02-15T04:09:15;25.67;;;16.23;;
85703;SDS011;76141;49.082;19.306;2024-02-15T04:11:42;30.23;;;17.08;;
85703;SDS011;76141;49.082;19.306;2024-02-15T04:14:08;31.25;;;17.02;;
85703;SDS011;76141;49.082;19.306;2024-02-15T04:16:34;27.23;;;16.23;;
85703;SDS011;76141;49.082;19.306;2024-02-15T04:19:01;28.70;;;17.15;;
85703;SDS011;76141;49.082;19.306;2024-02-15T04:21:26;27.60;;;17.10;;
85703;SDS011;76141;49.082;19.306;2024-02-15T04:23:52;28.90;;;17.67;;
85703;SDS011;76141;49.082;19.306;2024-02-15T04:26:19;28.13;;;16.63;;
85703;SDS011;76141;49.082;19.306;2024-02-15T04:28:45;26.95;;;17.38;;
85703;SDS011;76141;49.082;19.306;2024-02-15T04:31:13;29.73;;;17.05;;
85703;SDS011;76141;49.082;19.306;2024-02-15T04:33:39;26.80;;;16.63;;
85703;SDS011;76141;49.082;19.306;2024-02-15T04:36:05;28.95;;;16.95;;
85703;SDS011;76141;49.082;19.306;2024-02-15T04:38:32;26.25;;;16.75;;
85703;SDS011;76141;49.082;19.306;2024-02-15T04:41:00;26.00;;;16.23;;
85703;SDS011;76141;49.082;19.306;2024-02-15T04:43:26;24.92;;;17.15;;
85703;SDS011;76141;49.082;19.306;2024-02-15T04:45:51;25.27;;;15.82;;
85703;SDS011;76141;49.082;19.306;2024-02-15T04:48:17;28.35;;;16.77;;
85703;SDS011;76141;49.082;19.306;2024-02-15T04:50:44;26.85;;;16.85;;
85703;SDS011;76141;49.082;19.306;2024-02-15T04:53:10;27.40;;;16.45;;
85703;SDS011;76141;49.082;19.306;2024-02-15T04:55:36;25.38;;;16.50;;
85703;SDS011;76141;49.082;19.306;2024-02-15T04:58:01;29.92;;;18.65;;
85703;SDS011;76141;49.082;19.306;2024-02-15T05:00:27;29.08;;;18.27;;
85703;SDS011;76141;49.082;19.306;2024-02-15T05:02:53;35.75;;;20.25;;
85703;SDS011;76141;49.082;19.306;2024-02-15T05:05:19;31.83;;;19.00;;
85703;SDS011;76141;49.082;19.306;2024-02-15T05:07:45;32.03;;;20.33;;
85703;SDS011;76141;49.082;19.306;2024-02-15T05:10:10;29.83;;;18.77;;
85703;SDS011;76141;49.082;19.306;2024-02-15T05:12:37;32.05;;;17.30;;
85703;SDS011;76141;49.082;19.306;2024-02-15T05:15:03;29.27;;;18.15;;
85703;SDS011;76141;49.082;19.306;2024-02-15T05:17:38;27.75;;;17.42;;
85703;SDS011;76141;49.082;19.306;2024-02-15T05:20:08;30.67;;;18.48;;
85703;SDS011;76141;49.082;19.306;2024-02-15T05:22:38;32.13;;;18.85;;
85703;SDS011;76141;49.082;19.306;2024-02-15T05:25:05;33.00;;;17.42;;
85703;SDS011;76141;49.082;19.306;2024-02-15T05:27:33;35.75;;;18.58;;
85703;SDS011;76141;49.082;19.306;2024-02-15T05:29:58;29.05;;;18.50;;
85703;SDS011;76141;49.082;19.306;2024-02-15T05:32:24;33.67;;;18.17;;
85703;SDS011;76141;49.082;19.306;2024-02-15T05:34:51;39.30;;;18.55;;
85703;SDS011;76141;49.082;19.306;2024-02-15T05:37:16;30.38;;;17.33;;
85703;SDS011;76141;49.082;19.306;2024-02-15T05:39:42;27.15;;;17.40;;
85703;SDS011;76141;49.082;19.306;2024-02-15T05:42:08;31.85;;;19.00;;
85703;SDS011;76141;49.082;19.306;2024-02-15T05:44:35;34.42;;;19.40;;
85703;SDS011;76141;49.082;19.306;2024-02-15T05:47:01;35.42;;;20.40;;
85703;SDS011;76141;49.082;19.306;2024-02-15T05:49:26;47.40;;;24.00;;
85703;SDS011;76141;49.082;19.306;2024-02-15T05:51:52;47.08;;;25.17;;
85703;SDS011;76141;49.082;19.306;2024-02-15T05:54:18;50.13;;;25.08;;
85703;SDS011;76141;49.082;19.306;2024-02-15T05:56:47;47.95;;;24.42;;
85703;SDS011;76141;49.082;19.306;2024-02-15T05:59:16;47.40;;;24.70;;
85703;SDS011;76141;49.082;19.306;2024-02-15T06:01:45;49.92;;;25.73;;
85703;SDS011;76141;49.082;19.306;2024-02-15T06:04:10;51.00;;;25.48;;
85703;SDS011;76141;49.082;19.306;2024-02-15T06:06:36;54.50;;;26.40;;
85703;SDS011;76141;49.082;19.306;2024-02-15T06:09:01;51.60;;;26.88;;
85703;SDS011;76141;49.082;19.306;2024-02-15T06:11:27;60.50;;;28.02;;
85703;SDS011;76141;49.082;19.306;2024-02-15T06:13:53;53.63;;;27.42;;
85703;SDS011;76141;49.082;19.306;2024-02-15T06:16:19;58.08;;;28.38;;
85703;SDS011;76141;49.082;19.306;2024-02-15T06:18:44;53.90;;;27.48;;
85703;SDS011;76141;49.082;19.306;2024-02-15T06:21:13;44.75;;;22.83;;
85703;SDS011;76141;49.082;19.306;2024-02-15T06:23:38;37.70;;;20.77;;
85703;SDS011;76141;49.082;19.306;2024-02-15T06:26:04;37.13;;;20.50;;
85703;SDS011;76141;49.082;19.306;2024-02-15T06:28:30;37.65;;;20.40;;
85703;SDS011;76141;49.082;19.306;2024-02-15T06:31:14;45.22;;;22.45;;
85703;SDS011;76141;49.082;19.306;2024-02-15T06:33:58;44.53;;;23.13;;
85703;SDS011;76141;49.082;19.306;2024-02-15T06:39:33;44.75;;;21.10;;
85703;SDS011;76141;49.082;19.306;2024-02-15T06:42:10;42.65;;;22.25;;
85703;SDS011;76141;49.082;19.306;2024-02-15T06:44:37;45.13;;;21.98;;
85703;SDS011;76141;49.082;19.306;2024-02-15T06:47:05;40.20;;;21.17;;
85703;SDS011;76141;49.082;19.306;2024-02-15T06:49:31;38.22;;;19.65;;
85703;SDS011;76141;49.082;19.306;2024-02-15T06:51:57;39.85;;;20.27;;
85703;SDS011;76141;49.082;19.306;2024-02-15T06:54:24;39.70;;;19.38;;
85703;SDS011;76141;49.082;19.306;2024-02-15T06:56:49;37.90;;;19.55;;
85703;SDS011;76141;49.082;19.306;2024-02-15T06:59:17;42.65;;;20.73;;
85703;SDS011;76141;49.082;19.306;2024-02-15T07:01:43;37.45;;;20.23;;
85703;SDS011;76141;49.082;19.306;2024-02-15T07:04:09;38.92;;;19.95;;
85703;SDS011;76141;49.082;19.306;2024-02-15T07:06:37;40.42;;;19.95;;
85703;SDS011;76141;49.082;19.306;2024-02-15T07:09:04;39.17;;;19.50;;
85703;SDS011;76141;49.082;19.306;2024-02-15T07:11:31;43.00;;;20.38;;
85703;SDS011;76141;49.082;19.306;2024-02-15T07:13:58;40.45;;;20.05;;
85703;SDS011;76141;49.082;19.306;2024-02-15T07:16:23;31.95;;;18.15;;
85703;SDS011;76141;49.082;19.306;2024-02-15T07:18:49;36.42;;;18.77;;
85703;SDS011;76141;49.082;19.306;2024-02-15T07:21:15;25.90;;;15.30;;
85703;SDS011;76141;49.082;19.306;2024-02-15T07:23:42;28.02;;;13.95;;
85703;SDS011;76141;49.082;19.306;2024-02-15T07:26:07;26.70;;;13.68;;
85703;SDS011;76141;49.082;19.306;2024-02-15T07:28:33;21.02;;;12.98;;
85703;SDS011;76141;49.082;19.306;2024-02-15T07:30:59;23.25;;;11.93;;
85703;SDS011;76141;49.082;19.306;2024-02-15T07:33:27;23.35;;;12.07;;
85703;SDS011;76141;49.082;19.306;2024-02-15T07:35:54;19.92;;;10.95;;
85703;SDS011;76141;49.082;19.306;2024-02-15T07:38:19;19.98;;;10.90;;
85703;SDS011;76141;49.082;19.306;2024-02-15T07:40:47;19.45;;;10.55;;
85703;SDS011;76141;49.082;19.306;2024-02-15T07:45:49;18.80;;;9.65;;
85703;SDS011;76141;49.082;19.306;2024-02-15T07:53:25;16.15;;;9.25;;
85703;SDS011;76141;49.082;19.306;2024-02-15T07:55:50;25.45;;;11.00;;
85703;SDS011;76141;49.082;19.306;2024-02-15T07:58:16;28.23;;;11.50;;
85703;SDS011;76141;49.082;19.306;2024-02-15T08:00:44;30.65;;;11.98;;
85703;SDS011;76141;49.082;19.306;2024-02-15T08:03:10;75.72;;;20.00;;
85703;SDS011;76141;49.082;19.306;2024-02-15T08:05:36;53.13;;;19.67;;
85703;SDS011;76141;49.082;19.306;2024-02-15T08:08:03;41.13;;;20.48;;
85703;SDS011;76141;49.082;19.306;2024-02-15T08:10:28;34.65;;;17.67;;
85703;SDS011;76141;49.082;19.306;2024-02-15T08:12:54;38.20;;;17.02;;
85703;SDS011;76141;49.082;19.306;2024-02-15T08:15:22;31.70;;;16.15;;
85703;SDS011;76141;49.082;19.306;2024-02-15T08:17:49;19.75;;;12.18;;
85703;SDS011;76141;49.082;19.306;2024-02-15T08:20:15;15.40;;;8.45;;
85703;SDS011;76141;49.082;19.306;2024-02-15T08:22:46;14.32;;;8.50;;
85703;SDS011;76141;49.082;19.306;2024-02-15T08:25:12;18.50;;;8.20;;
85703;SDS011;76141;49.082;19.306;2024-02-15T08:27:40;14.90;;;7.95;;
85703;SDS011;76141;49.082;19.306;2024-02-15T08:30:10;22.50;;;13.33;;
85703;SDS011;76141;49.082;19.306;2024-02-15T08:32:37;23.35;;;10.18;;
85703;SDS011;76141;49.082;19.306;2024-02-15T08:35:04;24.10;;;10.38;;
85703;SDS011;76141;49.082;19.306;2024-02-15T08:37:37;16.02;;;9.82;;
85703;SDS011;76141;49.082;19.306;2024-02-15T08:40:06;20.80;;;9.40;;
85703;SDS011;76141;49.082;19.306;2024-02-15T08:42:41;17.17;;;8.85;;
85703;SDS011;76141;49.082;19.306;2024-02-15T08:45:07;14.75;;;8.38;;
85703;SDS011;76141;49.082;19.306;2024-02-15T08:47:35;19.20;;;9.07;;
85703;SDS011;76141;49.082;19.306;2024-02-15T08:50:02;15.60;;;8.18;;
85703;SDS011;76141;49.082;19.306;2024-02-15T08:52:28;18.55;;;7.85;;
85703;SDS011;76141;49.082;19.306;2024-02-15T08:54:54;25.45;;;8.65;;
85703;SDS011;76141;49.082;19.306;2024-02-15T08:57:20;27.42;;;10.63;;
85703;SDS011;76141;49.082;19.306;2024-02-15T08:59:46;20.08;;;9.55;;
85703;SDS011;76141;49.082;19.306;2024-02-15T09:02:12;26.45;;;12.10;;
85703;SDS011;76141;49.082;19.306;2024-02-15T09:04:39;25.40;;;13.48;;
85703;SDS011;76141;49.082;19.306;2024-02-15T09:07:06;20.63;;;12.13;;
85703;SDS011;76141;49.082;19.306;2024-02-15T09:09:32;24.63;;;11.40;;
85703;SDS011;76141;49.082;19.306;2024-02-15T09:12:00;23.95;;;10.05;;
85703;SDS011;76141;49.082;19.306;2024-02-15T09:14:27;23.13;;;11.25;;
85703;SDS011;76141;49.082;19.306;2024-02-15T09:16:52;14.65;;;9.60;;
85703;SDS011;76141;49.082;19.306;2024-02-15T09:19:18;18.55;;;10.38;;
85703;SDS011;76141;49.082;19.306;2024-02-15T09:21:44;19.70;;;10.38;;
85703;SDS011;76141;49.082;19.306;2024-02-15T09:24:09;23.48;;;10.95;;
85703;SDS011;76141;49.082;19.306;2024-02-15T09:26:35;18.85;;;9.82;;
85703;SDS011;76141;49.082;19.306;2024-02-15T09:29:01;15.85;;;10.50;;
85703;SDS011;76141;49.082;19.306;2024-02-15T09:31:26;21.38;;;11.38;;
85703;SDS011;76141;49.082;19.306;2024-02-15T09:33:52;21.65;;;11.20;;
85703;SDS011;76141;49.082;19.306;2024-02-15T09:36:17;18.33;;;10.20;;
85703;SDS011;76141;49.082;19.306;2024-02-15T09:38:42;18.08;;;10.27;;
85703;SDS011;76141;49.082;19.306;2024-02-15T09:41:08;29.33;;;10.32;;
85703;SDS011;76141;49.082;19.306;2024-02-15T09:43:34;17.52;;;8.70;;
85703;SDS011;76141;49.082;19.306;2024-02-15T09:46:00;21.38;;;9.52;;
85703;SDS011;76141;49.082;19.306;2024-02-15T09:48:29;17.15;;;9.27;;
85703;SDS011;76141;49.082;19.306;2024-02-15T09:50:55;16.10;;;8.50;;
85703;SDS011;76141;49.082;19.306;2024-02-15T09:53:21;24.80;;;9.43;;
85703;SDS011;76141;49.082;19.306;2024-02-15T09:55:54;16.00;;;9.50;;
85703;SDS011;76141;49.082;19.306;2024-02-15T09:58:20;17.00;;;9.80;;
85703;SDS011;76141;49.082;19.306;2024-02-15T10:00:48;15.90;;;9.40;;
85703;SDS011;76141;49.082;19.306;2024-02-15T10:03:16;17.35;;;9.40;;
85703;SDS011;76141;49.082;19.306;2024-02-15T10:05:44;12.45;;;8.73;;
85703;SDS011;76141;49.082;19.306;2024-02-15T10:08:09;17.23;;;8.85;;
85703;SDS011;76141;49.082;19.306;2024-02-15T10:10:36;26.80;;;13.65;;
85703;SDS011;76141;49.082;19.306;2024-02-15T10:13:01;24.77;;;12.68;;
85703;SDS011;76141;49.082;19.306;2024-02-15T10:15:27;18.08;;;9.90;;
85703;SDS011;76141;49.082;19.306;2024-02-15T10:17:55;15.40;;;10.18;;
85703;SDS011;76141;49.082;19.306;2024-02-15T10:20:21;16.52;;;10.02;;
85703;SDS011;76141;49.082;19.306;2024-02-15T10:22:50;19.23;;;9.50;;
85703;SDS011;76141;49.082;19.306;2024-02-15T10:25:17;18.88;;;9.48;;
85703;SDS011;76141;49.082;19.306;2024-02-15T10:27:44;17.55;;;9.40;;
85703;SDS011;76141;49.082;19.306;2024-02-15T10:30:19;28.48;;;9.98;;
85703;SDS011;76141;49.082;19.306;2024-02-15T10:32:46;25.50;;;10.43;;
85703;SDS011;76141;49.082;19.306;2024-02-15T10:35:22;20.80;;;10.68;;
85703;SDS011;76141;49.082;19.306;2024-02-15T10:37:48;16.30;;;9.35;;
85703;SDS011;76141;49.082;19.306;2024-02-15T10:40:18;17.48;;;9.48;;
85703;SDS011;76141;49.082;19.306;2024-02-15T10:42:45;15.43;;;8.73;;
85703;SDS011;76141;49.082;19.306;2024-02-15T10:45:12;31.33;;;9.18;;
85703;SDS011;76141;49.082;19.306;2024-02-15T10:47:39;24.52;;;9.88;;
85703;SDS011;76141;49.082;19.306;2024-02-15T10:50:06;17.48;;;9.88;;
85703;SDS011;76141;49.082;19.306;2024-02-15T10:52:32;17.30;;;9.93;;
85703;SDS011;76141;49.082;19.306;2024-02-15T10:55:08;17.33;;;9.00;;
85703;SDS011;76141;49.082;19.306;2024-02-15T10:57:39;21.80;;;9.00;;
85703;SDS011;76141;49.082;19.306;2024-02-15T11:00:06;32.05;;;10.32;;
85703;SDS011;76141;49.082;19.306;2024-02-15T11:03:23;21.27;;;9.85;;
85703;SDS011;76141;49.082;19.306;2024-02-15T11:05:27;35.38;;;10.77;;
85703;SDS011;76141;49.082;19.306;2024-02-15T11:07:55;26.25;;;10.93;;
85703;SDS011;76141;49.082;19.306;2024-02-15T11:10:20;17.80;;;9.98;;
85703;SDS011;76141;49.082;19.306;2024-02-15T11:12:46;17.27;;;9.85;;
85703;SDS011;76141;49.082;19.306;2024-02-15T11:15:12;18.98;;;10.48;;
85703;SDS011;76141;49.082;19.306;2024-02-15T11:18:00;16.00;;;9.70;;
85703;SDS011;76141;49.082;19.306;2024-02-15T11:22:58;15.27;;;9.35;;
85703;SDS011;76141;49.082;19.306;2024-02-15T11:25:34;20.30;;;10.15;;
85703;SDS011;76141;49.082;19.306;2024-02-15T11:30:51;22.95;;;11.02;;
85703;SDS011;76141;49.082;19.306;2024-02-15T11:36:10;18.73;;;9.60;;
85703;SDS011;76141;49.082;19.306;2024-02-15T11:38:37;18.73;;;11.27;;
85703;SDS011;76141;49.082;19.306;2024-02-15T11:41:07;15.53;;;10.37;;
85703;SDS011;76141;49.082;19.306;2024-02-15T11:48:46;13.70;;;9.05;;
85703;SDS011;76141;49.082;19.306;2024-02-15T11:51:25;17.25;;;8.50;;
85703;SDS011;76141;49.082;19.306;2024-02-15T11:59:09;18.98;;;10.18;;
85703;SDS011;76141;49.082;19.306;2024-02-15T12:01:43;15.88;;;9.60;;
85703;SDS011;76141;49.082;19.306;2024-02-15T12:04:28;15.60;;;8.02;;
85703;SDS011;76141;49.082;19.306;2024-02-15T12:07:13;14.30;;;6.20;;
85703;SDS011;76141;49.082;19.306;2024-02-15T12:09:58;7.70;;;4.20;;
85703;SDS011;76141;49.082;19.306;2024-02-15T12:12:52;3.63;;;2.20;;
85703;SDS011;76141;49.082;19.306;2024-02-15T12:15:37;6.18;;;1.80;;
85703;SDS011;76141;49.082;19.306;2024-02-15T12:18:21;11.35;;;2.60;;
85703;SDS011;76141;49.082;19.306;2024-02-15T12:21:05;4.60;;;2.83;;
85703;SDS011;76141;49.082;19.306;2024-02-15T12:23:32;4.28;;;2.70;;
85703;SDS011;76141;49.082;19.306;2024-02-15T12:26:01;5.65;;;2.00;;
85703;SDS011;76141;49.082;19.306;2024-02-15T12:28:28;5.63;;;1.75;;
85703;SDS011;76141;49.082;19.306;2024-02-15T12:30:55;7.65;;;2.50;;
85703;SDS011;76141;49.082;19.306;2024-02-15T12:33:23;9.65;;;2.05;;
85703;SDS011;76141;49.082;19.306;2024-02-15T12:35:49;4.60;;;1.80;;
85703;SDS011;76141;49.082;19.306;2024-02-15T12:38:17;11.30;;;3.00;;
85703;SDS011;76141;49.082;19.306;2024-02-15T12:40:43;6.72;;;2.70;;
85703;SDS011;76141;49.082;19.306;2024-02-15T12:43:10;12.40;;;3.85;;
85703;SDS011;76141;49.082;19.306;2024-02-15T12:45:36;45.80;;;21.25;;
85703;SDS011;76141;49.082;19.306;2024-02-15T12:48:06;15.65;;;8.55;;
85703;SDS011;76141;49.082;19.306;2024-02-15T12:50:35;14.30;;;7.72;;
85703;SDS011;76141;49.082;19.306;2024-02-15T12:53:01;8.77;;;4.65;;
85703;SDS011;76141;49.082;19.306;2024-02-15T12:55:34;1.85;;;1.25;;
85703;SDS011;76141;49.082;19.306;2024-02-15T12:58:01;2.50;;;1.30;;
85703;SDS011;76141;49.082;19.306;2024-02-15T13:00:33;4.18;;;1.50;;
85703;SDS011;76141;49.082;19.306;2024-02-15T13:03:04;2.40;;;1.30;;
85703;SDS011;76141;49.082;19.306;2024-02-15T13:05:34;2.85;;;1.50;;
85703;SDS011;76141;49.082;19.306;2024-02-15T13:08:01;2.22;;;1.50;;
85703;SDS011;76141;49.082;19.306;2024-02-15T13:10:28;2.50;;;1.67;;
85703;SDS011;76141;49.082;19.306;2024-02-15T13:12:54;1.30;;;1.20;;
85703;SDS011;76141;49.082;19.306;2024-02-15T13:15:21;1.20;;;1.00;;
85703;SDS011;76141;49.082;19.306;2024-02-15T13:17:52;3.83;;;1.20;;
85703;SDS011;76141;49.082;19.306;2024-02-15T13:20:19;2.85;;;1.13;;
85703;SDS011;76141;49.082;19.306;2024-02-15T13:22:52;2.30;;;1.00;;
85703;SDS011;76141;49.082;19.306;2024-02-15T13:25:19;3.05;;;1.30;;
85703;SDS011;76141;49.082;19.306;2024-02-15T13:27:46;3.13;;;1.02;;
85703;SDS011;76141;49.082;19.306;2024-02-15T13:30:12;1.15;;;1.00;;
85703;SDS011;76141;49.082;19.306;2024-02-15T13:32:38;4.60;;;1.48;;
85703;SDS011;76141;49.082;19.306;2024-02-15T13:35:06;3.58;;;1.33;;
85703;SDS011;76141;49.082;19.306;2024-02-15T13:37:40;5.47;;;1.45;;
85703;SDS011;76141;49.082;19.306;2024-02-15T13:40:08;4.90;;;1.35;;
85703;SDS011;76141;49.082;19.306;2024-02-15T13:42:40;1.77;;;1.00;;
85703;SDS011;76141;49.082;19.306;2024-02-15T13:45:20;3.90;;;1.08;;
85703;SDS011;76141;49.082;19.306;2024-02-15T13:47:49;5.57;;;1.10;;
85703;SDS011;76141;49.082;19.306;2024-02-15T13:50:15;1.95;;;0.90;;
85703;SDS011;76141;49.082;19.306;2024-02-15T13:52:42;6.65;;;1.08;;
85703;SDS011;76141;49.082;19.306;2024-02-15T13:55:11;3.03;;;1.50;;
85703;SDS011;76141;49.082;19.306;2024-02-15T13:57:41;2.95;;;1.77;;
85703;SDS011;76141;49.082;19.306;2024-02-15T14:00:08;2.58;;;1.38;;
85703;SDS011;76141;49.082;19.306;2024-02-15T14:02:39;3.25;;;1.25;;
85703;SDS011;76141;49.082;19.306;2024-02-15T14:05:08;4.30;;;1.63;;
85703;SDS011;76141;49.082;19.306;2024-02-15T14:07:38;2.70;;;1.50;;
85703;SDS011;76141;49.082;19.306;2024-02-15T14:10:04;4.40;;;1.77;;
85703;SDS011;76141;49.082;19.306;2024-02-15T14:12:31;7.10;;;1.80;;
85703;SDS011;76141;49.082;19.306;2024-02-15T14:14:56;17.88;;;2.40;;
85703;SDS011;76141;49.082;19.306;2024-02-15T14:17:22;3.70;;;1.90;;
85703;SDS011;76141;49.082;19.306;2024-02-15T14:19:48;4.38;;;2.53;;
85703;SDS011;76141;49.082;19.306;2024-02-15T14:22:13;5.43;;;2.85;;
85703;SDS011;76141;49.082;19.306;2024-02-15T14:24:44;6.95;;;2.65;;
85703;SDS011;76141;49.082;19.306;2024-02-15T14:27:13;5.57;;;2.28;;
85703;SDS011;76141;49.082;19.306;2024-02-15T14:29:39;5.53;;;2.87;;
85703;SDS011;76141;49.082;19.306;2024-02-15T14:32:25;8.23;;;2.58;;
85703;SDS011;76141;49.082;19.306;2024-02-15T14:35:09;7.45;;;2.90;;
85703;SDS011;76141;49.082;19.306;2024-02-15T14:37:34;8.57;;;3.15;;
85703;SDS011;76141;49.082;19.306;2024-02-15T14:39:59;12.00;;;2.40;;
85703;SDS011;76141;49.082;19.306;2024-02-15T14:42:25;7.95;;;3.55;;
85703;SDS011;76141;49.082;19.306;2024-02-15T14:44:51;7.60;;;4.93;;
85703;SDS011;76141;49.082;19.306;2024-02-15T14:47:16;16.92;;;7.35;;
85703;SDS011;76141;49.082;19.306;2024-02-15T14:49:43;15.70;;;7.95;;